Time;durP1;ratioP1;P1;durP2;ratioP2;P2;SDS_P1;SDS_P2;PMS_P1;PMS_P2;Temp;Humidity;BMP_temperature;BMP_pressure;BME280_temperature;BME280_humidity;BME280_pressure;Samples;Min_cycle;Max_cycle;Signal;HPM_P1;HPM_P2
2023/05/07 00:00:54;;;;;;;0.70;0.50;;;;;;;20.48;36.61;100783.47;4837931;29;20100;-72
2023/05/07 00:03:23;;;;;;;1.65;0.63;;;;;;;20.56;36.22;100779.00;4845016;29;20070;-73
2023/05/07 00:05:52;;;;;;;0.95;0.50;;;;;;;20.42;36.92;100780.88;4838915;29;20054;-74
2023/05/07 00:08:21;;;;;;;1.25;0.65;;;;;;;20.51;37.71;100783.41;4836820;29;20050;-74
2023/05/07 00:10:52;;;;;;;2.00;0.80;;;;;;;20.65;38.60;100794.66;4834234;29;20080;-78
2023/05/07 00:13:20;;;;;;;3.17;0.65;;;;;;;20.49;38.95;100803.59;4834681;29;20058;-75
2023/05/07 00:15:49;;;;;;;2.17;0.60;;;;;;;20.35;39.58;100810.75;4834296;29;20062;-73
2023/05/07 00:18:20;;;;;;;2.08;0.90;;;;;;;20.23;40.38;100804.72;4836008;29;20061;-73
2023/05/07 00:20:49;;;;;;;1.52;0.60;;;;;;;20.13;40.30;100816.19;4836522;29;20512;-73
2023/05/07 00:23:18;;;;;;;0.88;0.50;;;;;;;20.10;40.74;100810.97;4835320;29;20054;-73
2023/05/07 00:25:46;;;;;;;0.95;0.60;;;;;;;20.01;40.98;100814.53;4832799;29;20054;-73
2023/05/07 00:28:16;;;;;;;3.70;0.70;;;;;;;20.06;40.78;100819.75;4834558;29;20058;-73
2023/05/07 00:30:46;;;;;;;1.30;0.60;;;;;;;20.12;41.34;100819.72;4831438;29;20073;-71
2023/05/07 00:33:15;;;;;;;1.50;0.70;;;;;;;20.21;42.18;100824.03;4836231;29;20068;-73
2023/05/07 00:35:44;;;;;;;0.75;0.47;;;;;;;20.32;42.43;100826.53;4830379;29;20050;-73
2023/05/07 00:38:13;;;;;;;1.35;0.40;;;;;;;20.32;42.43;100837.03;4838542;29;20062;-73
2023/05/07 00:40:41;;;;;;;2.22;0.50;;;;;;;20.11;40.56;100833.72;4834063;29;20073;-72
2023/05/07 00:43:10;;;;;;;2.38;0.50;;;;;;;19.94;40.94;100852.25;4833325;29;20057;-72
2023/05/07 00:45:40;;;;;;;0.30;0.25;;;;;;;19.81;41.64;100850.59;4834852;29;20497;-74
2023/05/07 00:48:12;;;;;;;1.50;0.40;;;;;;;19.69;42.25;100851.56;4832575;29;20050;-73
2023/05/07 00:50:41;;;;;;;1.52;1.00;;;;;;;19.60;43.28;100855.06;4831241;29;20054;-73
2023/05/07 00:53:09;;;;;;;2.50;2.17;;;;;;;19.66;43.77;100862.03;4839181;29;20053;-72
2023/05/07 00:55:38;;;;;;;0.73;0.47;;;;;;;19.59;44.26;100857.72;4834659;29;20056;-71
2023/05/07 00:58:07;;;;;;;2.03;0.60;;;;;;;19.54;44.71;100862.09;4838933;29;20626;-72
2023/05/07 01:00:36;;;;;;;2.97;1.63;;;;;;;19.40;45.55;100865.69;4840475;29;20108;-72
2023/05/07 01:03:07;;;;;;;1.70;0.60;;;;;;;19.32;46.21;100856.13;4841277;29;20057;-73
2023/05/07 01:05:36;;;;;;;1.00;0.60;;;;;;;19.25;45.82;100871.00;4838757;29;20073;-73
2023/05/07 01:08:06;;;;;;;2.95;0.70;;;;;;;19.18;45.05;100866.66;4835894;29;20524;-73
2023/05/07 01:10:37;;;;;;;1.50;0.60;;;;;;;19.12;46.53;100864.06;4827747;29;20466;-73
2023/05/07 01:13:07;;;;;;;2.50;0.50;;;;;;;19.05;46.97;100864.06;4838617;29;20042;-74
2023/05/07 01:15:35;;;;;;;3.33;1.02;;;;;;;18.99;47.26;100866.75;4839500;29;20149;-73
2023/05/07 01:18:06;;;;;;;4.18;2.78;;;;;;;18.90;47.16;100864.16;4833458;29;20053;-73
2023/05/07 01:20:35;;;;;;;4.45;3.30;;;;;;;18.72;48.05;100879.88;4837432;29;20081;-73
2023/05/07 01:23:07;;;;;;;1.67;1.45;;;;;;;18.50;49.56;100874.66;4830445;29;20062;-75
2023/05/07 01:25:36;;;;;;;7.57;1.15;;;;;;;18.30;54.27;100876.44;4837516;29;20045;-74
2023/05/07 01:28:05;;;;;;;4.85;2.47;;;;;;;18.08;57.16;100876.44;4830312;29;20109;-75
2023/05/07 01:30:36;;;;;;;7.93;4.57;;;;;;;17.89;59.60;100886.03;4835944;29;20042;-72
2023/05/07 01:33:09;;;;;;;3.25;2.95;;;;;;;17.73;61.41;100886.81;4839193;29;20057;-72
2023/05/07 01:35:43;;;;;;;1.02;0.75;;;;;;;17.54;62.88;100889.38;4836216;29;20473;-71
2023/05/07 01:38:14;;;;;;;2.95;1.00;;;;;;;17.38;61.61;100888.47;4838852;29;20056;-71
2023/05/07 01:40:43;;;;;;;2.13;1.48;;;;;;;17.29;63.31;100883.19;4831266;29;20051;-71
2023/05/07 01:43:12;;;;;;;3.75;3.40;;;;;;;17.21;64.89;100886.66;4829911;29;20050;-73
2023/05/07 01:45:42;;;;;;;2.33;1.67;;;;;;;17.12;64.20;100885.75;4829927;29;20137;-73
2023/05/07 01:48:11;;;;;;;0.50;0.40;;;;;;;17.06;61.22;100890.06;4836768;29;20062;-72
2023/05/07 01:50:41;;;;;;;1.30;0.77;;;;;;;16.99;61.50;100878.69;4836687;29;20106;-73
2023/05/07 01:53:13;;;;;;;0.95;0.70;;;;;;;16.93;60.66;100884.78;4838745;29;20049;-71
2023/05/07 01:55:43;;;;;;;1.48;0.63;;;;;;;16.86;62.30;100877.78;4833377;29;20054;-72
2023/05/07 01:58:12;;;;;;;0.82;0.70;;;;;;;16.92;61.60;100890.00;4834153;29;20479;-73
2023/05/07 02:00:41;;;;;;;2.88;2.40;;;;;;;16.94;63.17;100894.34;4832177;29;20617;-73
2023/05/07 02:03:11;;;;;;;1.73;1.20;;;;;;;16.93;57.89;100895.22;4827459;29;20049;-73
2023/05/07 02:05:40;;;;;;;1.73;1.25;;;;;;;16.95;52.52;100903.97;4837763;29;20081;-73
2023/05/07 02:08:09;;;;;;;7.60;5.10;;;;;;;16.93;51.65;100894.38;4829872;29;20050;-74
2023/05/07 02:10:37;;;;;;;1.92;1.45;;;;;;;16.91;52.05;100894.34;4832104;29;20054;-73
2023/05/07 02:13:08;;;;;;;1.00;0.80;;;;;;;16.92;52.25;100903.91;4835957;29;20481;-76
2023/05/07 02:15:36;;;;;;;2.45;1.40;;;;;;;16.89;49.85;100888.22;4835800;29;20062;-74
2023/05/07 02:18:07;;;;;;;2.25;1.27;;;;;;;16.93;51.37;100889.16;4837596;29;20722;-73
2023/05/07 02:20:36;;;;;;;1.00;0.40;;;;;;;16.96;50.06;100889.16;4831256;29;20649;-72
2023/05/07 02:23:04;;;;;;;2.00;0.82;;;;;;;17.03;51.24;100897.91;4837824;29;20432;-72
2023/05/07 02:25:33;;;;;;;0.65;0.32;;;;;;;17.11;50.27;100904.03;4839936;29;20065;-70
2023/05/07 02:28:02;;;;;;;1.60;0.65;;;;;;;17.12;51.18;100911.03;4838665;29;20050;-71
2023/05/07 02:30:32;;;;;;;0.60;0.40;;;;;;;17.15;50.09;100922.34;4839784;29;20056;-69
2023/05/07 02:33:01;;;;;;;0.90;0.55;;;;;;;17.12;47.98;100922.34;4830682;29;20137;-71
2023/05/07 02:35:35;;;;;;;0.10;0.10;;;;;;;17.09;49.03;100934.53;4836763;29;20050;-70
2023/05/07 02:38:04;;;;;;;0.10;0.10;;;;;;;17.03;48.16;100926.66;4839606;29;20137;-70
2023/05/07 02:40:38;;;;;;;0.77;0.38;;;;;;;16.98;48.96;100926.63;4838357;29;20096;-70
2023/05/07 02:43:07;;;;;;;1.00;0.50;;;;;;;16.92;49.19;100930.06;4838814;29;20072;-71
2023/05/07 02:45:41;;;;;;;1.85;0.22;;;;;;;16.87;47.72;100936.13;4833066;29;20050;-73
2023/05/07 02:48:09;;;;;;;0.40;0.30;;;;;;;16.83;48.48;100937.84;4836977;29;20064;-71
2023/05/07 02:50:38;;;;;;;0.38;0.38;;;;;;;16.82;48.56;100943.09;4832798;29;20057;-72
2023/05/07 02:53:07;;;;;;;3.28;1.50;;;;;;;16.76;49.00;100943.88;4828333;29;20054;-71
2023/05/07 02:55:36;;;;;;;1.05;0.40;;;;;;;16.69;48.84;100944.69;4831788;29;20058;-69
2023/05/07 02:58:05;;;;;;;0.47;0.40;;;;;;;16.61;48.57;100956.84;4827095;29;20054;-71
2023/05/07 03:00:34;;;;;;;1.67;0.40;;;;;;;16.51;48.59;100956.72;4832473;29;20096;-71
2023/05/07 03:03:04;;;;;;;3.63;0.85;;;;;;;16.46;49.01;100961.03;4830909;29;20065;-71
2023/05/07 03:05:33;;;;;;;0.70;0.47;;;;;;;16.39;49.28;100964.47;4836586;29;20635;-71
2023/05/07 03:08:02;;;;;;;1.02;0.63;;;;;;;16.34;50.13;100960.94;4836336;29;20552;-71
2023/05/07 03:10:31;;;;;;;0.93;0.60;;;;;;;16.25;49.16;100955.66;4832476;29;20123;-70
2023/05/07 03:12:59;;;;;;;0.88;0.43;;;;;;;16.13;50.28;100956.41;4826137;29;20119;-70
2023/05/07 03:15:28;;;;;;;0.68;0.50;;;;;;;16.02;50.62;100956.28;4836390;29;20053;-71
2023/05/07 03:17:56;;;;;;;0.90;0.70;;;;;;;15.93;50.69;100964.00;4833080;29;20050;-71
2023/05/07 03:20:27;;;;;;;0.95;0.50;;;;;;;15.82;52.02;100968.25;4834315;29;20081;-70
2023/05/07 03:22:55;;;;;;;2.55;0.30;;;;;;;15.70;52.56;100971.56;4835526;29;20057;-70
2023/05/07 03:25:24;;;;;;;1.52;0.50;;;;;;;15.58;53.57;100976.63;4833993;29;20061;-71
2023/05/07 03:27:53;;;;;;;1.85;0.77;;;;;;;15.48;54.64;100978.22;4833993;29;20053;-70
2023/05/07 03:30:22;;;;;;;1.98;1.30;;;;;;;15.37;54.70;100978.09;4836544;29;20061;-71
2023/05/07 03:32:50;;;;;;;1.15;0.50;;;;;;;15.25;55.68;100984.00;4833845;29;20053;-70
2023/05/07 03:35:19;;;;;;;0.95;0.63;;;;;;;15.15;55.25;100989.94;4835390;29;20127;-71
2023/05/07 03:37:49;;;;;;;1.23;0.60;;;;;;;15.02;56.56;100991.47;4830931;29;20500;-71
2023/05/07 03:40:18;;;;;;;3.00;0.50;;;;;;;14.94;56.96;100995.72;4833792;29;20371;-70
2023/05/07 03:42:46;;;;;;;2.05;0.70;;;;;;;14.87;58.40;101001.69;4824957;29;20489;-71
2023/05/07 03:45:15;;;;;;;1.10;0.63;;;;;;;14.81;58.62;101012.00;4833848;29;20755;-71
2023/05/07 03:47:44;;;;;;;2.83;0.50;;;;;;;14.68;58.71;101010.03;4831849;29;20065;-72
2023/05/07 03:50:12;;;;;;;3.70;2.05;;;;;;;14.58;59.04;101016.84;4837349;29;20045;-71
2023/05/07 03:52:41;;;;;;;4.80;2.45;;;;;;;14.50;60.72;101015.78;4828622;29;20065;-71
2023/05/07 03:55:12;;;;;;;10.38;4.00;;;;;;;14.40;60.41;101020.81;4832351;29;20501;-71
2023/05/07 03:57:40;;;;;;;2.25;1.10;;;;;;;14.33;60.93;101024.16;4825829;29;20073;-71
2023/05/07 04:00:10;;;;;;;0.98;0.45;;;;;;;14.29;61.09;101032.75;4830388;29;20050;-71
2023/05/07 04:02:39;;;;;;;0.90;0.50;;;;;;;14.24;61.55;101040.47;4835312;29;20052;-71
2023/05/07 04:05:07;;;;;;;0.68;0.38;;;;;;;14.20;61.55;101040.38;4832448;29;20056;-71
2023/05/07 04:07:36;;;;;;;1.08;0.50;;;;;;;14.15;62.24;101044.63;4831597;29;20065;-71
2023/05/07 04:10:05;;;;;;;0.77;0.60;;;;;;;14.10;62.65;101046.28;4831915;29;20413;-70
2023/05/07 04:12:35;;;;;;;1.30;0.80;;;;;;;14.05;62.61;101051.38;4835049;29;20056;-70
2023/05/07 04:15:04;;;;;;;1.38;0.63;;;;;;;14.00;63.46;101055.63;4837223;29;20050;-71
2023/05/07 04:17:33;;;;;;;1.08;0.98;;;;;;;13.92;64.09;101067.59;4832093;29;20141;-71
2023/05/07 04:20:02;;;;;;;3.03;2.15;;;;;;;13.87;64.34;101064.91;4834066;29;20054;-72
2023/05/07 04:22:30;;;;;;;2.83;2.00;;;;;;;13.83;64.64;101073.47;4828463;29;20485;-70
2023/05/07 04:25:00;;;;;;;2.05;1.02;;;;;;;13.76;65.06;101069.84;4832353;29;20054;-71
2023/05/07 04:27:28;;;;;;;10.13;2.90;;;;;;;13.72;65.54;101074.97;4829944;29;20080;-71
2023/05/07 04:30:00;;;;;;;2.55;1.80;;;;;;;13.68;65.50;101078.38;4828245;29;20102;-72
2023/05/07 04:32:29;;;;;;;4.32;2.97;;;;;;;13.63;66.26;101075.66;4830984;29;20058;-72
2023/05/07 04:34:57;;;;;;;8.27;4.13;;;;;;;13.59;66.37;101068.63;4828746;29;20057;-70
2023/05/07 04:37:27;;;;;;;2.33;1.40;;;;;;;13.55;67.08;101065.06;4830492;29;20050;-71
2023/05/07 04:39:55;;;;;;;1.40;1.02;;;;;;;13.55;67.84;101070.28;4833509;29;20138;-71
2023/05/07 04:42:24;;;;;;;1.77;0.82;;;;;;;13.50;67.82;101074.50;4834143;29;20109;-71
2023/05/07 04:44:55;;;;;;;5.45;1.70;;;;;;;13.46;68.13;101075.25;4831515;29;20056;-72
2023/05/07 04:47:25;;;;;;;1.60;1.00;;;;;;;13.42;68.38;101070.84;4826055;29;20062;-71
2023/05/07 04:49:54;;;;;;;2.25;0.80;;;;;;;13.37;69.03;101068.13;4834603;29;20524;-70
2023/05/07 04:52:22;;;;;;;1.38;0.82;;;;;;;13.32;69.56;101071.47;4835970;29;20668;-71
2023/05/07 04:54:51;;;;;;;2.35;0.88;;;;;;;13.27;69.58;101080.88;4832972;29;20058;-71
2023/05/07 04:57:19;;;;;;;1.13;0.50;;;;;;;13.22;69.18;101078.16;4824547;29;20054;-70
2023/05/07 04:59:48;;;;;;;1.67;0.93;;;;;;;13.17;69.35;101079.75;4833828;29;20054;-70
2023/05/07 05:02:17;;;;;;;0.52;0.40;;;;;;;13.09;70.18;101082.16;4834784;29;20066;-71
2023/05/07 05:04:47;;;;;;;1.25;0.50;;;;;;;13.07;70.50;101081.25;4835446;29;20054;-71
2023/05/07 05:07:16;;;;;;;1.00;0.50;;;;;;;13.05;70.08;101088.13;4837177;29;20106;-72
2023/05/07 05:09:45;;;;;;;1.20;0.35;;;;;;;13.02;70.15;101090.66;4836247;29;20065;-71
2023/05/07 05:12:13;;;;;;;3.05;0.50;;;;;;;12.99;70.53;101095.78;4839227;29;20583;-70
2023/05/07 05:14:42;;;;;;;0.50;0.20;;;;;;;12.95;70.97;101087.03;4834248;29;20058;-70
2023/05/07 05:17:11;;;;;;;2.95;1.27;;;;;;;12.92;72.52;101093.88;4837891;29;20086;-72
2023/05/07 05:19:39;;;;;;;1.08;0.45;;;;;;;12.91;72.81;101089.50;4834991;29;20046;-72
2023/05/07 05:22:10;;;;;;;1.02;0.32;;;;;;;12.90;72.62;101087.75;4835715;29;20583;-71
2023/05/07 05:24:38;;;;;;;0.73;0.25;;;;;;;12.86;74.06;101086.78;4836267;29;20057;-71
2023/05/07 05:27:08;;;;;;;1.65;0.45;;;;;;;12.81;74.15;101084.94;4832899;29;20049;-71
2023/05/07 05:29:37;;;;;;;2.22;0.47;;;;;;;12.78;74.65;101086.59;4837672;29;20053;-70
2023/05/07 05:32:05;;;;;;;2.10;0.80;;;;;;;12.75;75.46;101081.31;4836274;29;20054;-71
2023/05/07 05:34:34;;;;;;;3.05;0.70;;;;;;;12.74;75.22;101086.50;4833528;29;20584;-71
2023/05/07 05:37:03;;;;;;;2.30;0.95;;;;;;;12.70;76.44;101090.72;4832044;29;20054;-72
2023/05/07 05:39:33;;;;;;;0.90;0.50;;;;;;;12.67;77.38;101097.56;4830087;29;20547;-71
2023/05/07 05:42:02;;;;;;;0.40;0.40;;;;;;;12.65;76.80;101099.22;4838181;29;20073;-71
2023/05/07 05:44:30;;;;;;;0.68;0.20;;;;;;;12.60;77.31;101101.72;4833613;29;20060;-71
2023/05/07 05:46:59;;;;;;;0.40;0.30;;;;;;;12.58;78.14;101109.44;4833626;29;20413;-71
2023/05/07 05:49:27;;;;;;;0.35;0.10;;;;;;;12.50;78.83;101115.25;4831590;29;20107;-70
2023/05/07 05:51:56;;;;;;;0.22;0.10;;;;;;;12.49;79.30;101118.69;4831401;29;20444;-71
2023/05/07 05:54:25;;;;;;;0.35;0.22;;;;;;;12.43;80.20;101116.81;4837100;29;20639;-70
2023/05/07 05:56:55;;;;;;;2.63;0.50;;;;;;;12.35;80.96;101123.50;4840963;29;20084;-71
2023/05/07 05:59:24;;;;;;;0.65;0.30;;;;;;;12.30;81.38;101118.19;4840986;29;20594;-70
2023/05/07 06:01:53;;;;;;;0.45;0.20;;;;;;;12.29;82.08;101126.78;4836979;29;20047;-69
2023/05/07 06:04:21;;;;;;;0.30;0.30;;;;;;;12.27;83.13;101127.59;4840485;29;20054;-70
2023/05/07 06:06:50;;;;;;;1.95;0.40;;;;;;;12.23;82.12;101126.66;4837529;29;20065;-70
2023/05/07 06:09:18;;;;;;;2.00;0.73;;;;;;;12.21;82.56;101130.91;4838422;29;20058;-70
2023/05/07 06:11:47;;;;;;;2.40;0.45;;;;;;;12.18;82.69;101128.19;4837180;29;20096;-70
2023/05/07 06:14:17;;;;;;;4.72;0.32;;;;;;;12.15;82.59;101118.63;4839097;29;20076;-70
2023/05/07 06:16:46;;;;;;;0.50;0.32;;;;;;;12.16;82.55;101119.50;4837853;29;20149;-69
2023/05/07 06:19:17;;;;;;;1.88;0.32;;;;;;;12.15;82.38;101128.13;4838968;29;20049;-70
2023/05/07 06:21:46;;;;;;;0.75;0.73;;;;;;;12.16;81.92;101135.06;4835238;29;20060;-71
2023/05/07 06:24:14;;;;;;;0.98;0.57;;;;;;;12.15;82.33;101131.59;4834359;29;20057;-70
2023/05/07 06:26:43;;;;;;;1.13;0.70;;;;;;;12.15;81.98;101123.81;4835049;29;20837;-69
2023/05/07 06:29:12;;;;;;;2.88;0.77;;;;;;;12.16;82.33;101135.06;4839647;29;20069;-70
2023/05/07 06:31:42;;;;;;;1.85;0.20;;;;;;;12.14;82.45;101135.03;4840868;29;20053;-70
2023/05/07 06:34:14;;;;;;;0.60;0.22;;;;;;;12.15;82.03;101135.91;4835254;29;20126;-70
2023/05/07 06:36:42;;;;;;;1.02;0.20;;;;;;;12.14;82.45;101140.22;4835006;29;20086;-70
2023/05/07 06:39:11;;;;;;;1.95;0.80;;;;;;;12.10;82.30;101134.91;4833973;29;20631;-70
2023/05/07 06:41:39;;;;;;;0.55;0.30;;;;;;;12.15;82.99;101146.28;4837515;29;20057;-69
2023/05/07 06:44:08;;;;;;;1.02;0.43;;;;;;;12.12;83.41;101143.59;4836685;29;20065;-70
2023/05/07 06:46:45;;;;;;;2.33;0.95;;;;;;;12.13;83.22;101145.34;4834000;29;20100;-69
2023/05/07 06:49:15;;;;;;;1.90;0.65;;;;;;;12.14;82.95;101147.13;4831314;29;20041;-69
2023/05/07 06:51:43;;;;;;;1.45;0.55;;;;;;;12.13;82.10;101141.03;4834187;29;20053;-70
2023/05/07 06:54:12;;;;;;;0.68;0.38;;;;;;;12.14;81.49;101147.13;4835772;29;20062;-70
2023/05/07 06:56:40;;;;;;;3.35;1.05;;;;;;;12.13;80.30;101145.34;4834340;29;20064;-70
2023/05/07 06:59:09;;;;;;;3.55;0.40;;;;;;;12.11;77.64;101149.63;4831948;29;20098;-69
2023/05/07 07:01:38;;;;;;;2.42;1.25;;;;;;;12.08;77.03;101144.34;4830720;29;20056;-70
2023/05/07 07:04:08;;;;;;;2.75;0.70;;;;;;;12.06;75.57;101148.59;4838379;29;20488;-70
2023/05/07 07:06:37;;;;;;;3.92;0.85;;;;;;;12.04;74.14;101150.28;4835389;29;20080;-70
2023/05/07 07:09:05;;;;;;;4.45;1.10;;;;;;;12.01;74.36;101158.84;4831183;29;20061;-71
2023/05/07 07:11:34;;;;;;;4.28;0.98;;;;;;;12.00;73.92;101163.97;4837521;29;20626;-70
2023/05/07 07:14:03;;;;;;;4.40;1.15;;;;;;;11.98;74.38;101176.00;4831764;29;20058;-70
2023/05/07 07:16:31;;;;;;;1.40;0.70;;;;;;;11.95;75.30;101161.25;4833159;29;20057;-69
2023/05/07 07:19:00;;;;;;;1.75;0.45;;;;;;;11.93;75.19;101171.59;4837007;29;20046;-69
2023/05/07 07:21:30;;;;;;;3.22;0.63;;;;;;;11.94;75.29;101173.34;4832201;29;20061;-69
2023/05/07 07:23:59;;;;;;;4.55;1.35;;;;;;;11.96;75.31;101188.94;4835243;29;20625;-69
2023/05/07 07:26:27;;;;;;;1.35;0.70;;;;;;;11.98;76.17;101181.19;4832756;29;20057;-70
2023/05/07 07:28:56;;;;;;;1.55;0.35;;;;;;;11.97;78.71;101179.44;4832352;29;20057;-69
2023/05/07 07:31:24;;;;;;;3.30;0.60;;;;;;;11.97;78.64;101188.09;4838745;29;20079;-70
2023/05/07 07:33:53;;;;;;;2.15;0.60;;;;;;;11.98;78.38;101191.56;4831999;29;20057;-68
2023/05/07 07:36:22;;;;;;;1.08;0.40;;;;;;;11.94;78.63;101195.81;4832636;29;20054;-71
2023/05/07 07:38:52;;;;;;;3.13;1.17;;;;;;;11.91;78.94;101195.69;4837403;29;20081;-69
2023/05/07 07:41:21;;;;;;;0.80;0.43;;;;;;;11.88;77.81;101196.47;4835699;29;20050;-71
2023/05/07 07:43:50;;;;;;;0.93;0.45;;;;;;;11.88;79.20;101201.66;4830569;29;20062;-71
2023/05/07 07:46:18;;;;;;;0.43;0.40;;;;;;;11.85;78.50;101211.91;4840436;29;20089;-70
2023/05/07 07:48:54;;;;;;;0.40;0.30;;;;;;;11.81;78.37;101204.88;4839772;29;20166;-69
2023/05/07 07:51:22;;;;;;;1.40;0.43;;;;;;;11.75;78.36;101204.69;4835353;29;20096;-70
2023/05/07 07:53:52;;;;;;;6.20;0.80;;;;;;;11.75;79.32;101207.28;4839835;29;20132;-69
2023/05/07 07:56:22;;;;;;;1.65;0.45;;;;;;;11.77;79.24;101200.41;4837847;29;20569;-70
2023/05/07 07:58:50;;;;;;;5.28;0.60;;;;;;;11.76;79.07;101211.63;4834366;29;20129;-70
2023/05/07 08:01:19;;;;;;;2.33;0.73;;;;;;;11.72;78.65;101205.44;4834093;29;20058;-70
2023/05/07 08:03:48;;;;;;;2.88;0.43;;;;;;;11.69;79.12;101210.53;4836742;29;20050;-70
2023/05/07 08:06:16;;;;;;;3.40;0.70;;;;;;;11.64;78.52;101211.25;4834960;29;20064;-70
2023/05/07 08:08:45;;;;;;;5.57;0.80;;;;;;;11.61;77.57;101212.00;4834855;29;20683;-70
2023/05/07 08:11:16;;;;;;;2.72;0.60;;;;;;;11.57;77.77;101209.25;4833944;29;20355;-70
2023/05/07 08:13:45;;;;;;;2.47;0.60;;;;;;;11.56;78.50;101207.50;4832785;29;21228;-70
2023/05/07 08:16:13;;;;;;;1.67;0.88;;;;;;;11.49;78.71;101194.34;4834737;29;20876;-69
2023/05/07 08:18:42;;;;;;;1.45;0.60;;;;;;;11.56;78.19;101202.31;4834218;29;20534;-70
2023/05/07 08:21:11;;;;;;;2.58;0.55;;;;;;;11.57;78.37;101204.97;4835569;29;20046;-69
2023/05/07 08:23:39;;;;;;;2.22;0.75;;;;;;;11.61;77.48;101201.63;4830601;29;20053;-70
2023/05/07 08:26:09;;;;;;;1.98;0.80;;;;;;;11.64;77.67;101208.66;4832177;29;20069;-70
2023/05/07 08:28:39;;;;;;;1.17;0.65;;;;;;;11.65;77.18;101207.81;4836272;29;20058;-70
2023/05/07 08:31:08;;;;;;;3.85;0.57;;;;;;;11.65;76.27;101207.81;4834991;29;20050;-70
2023/05/07 08:33:36;;;;;;;4.03;0.80;;;;;;;11.65;76.81;101211.25;4833413;29;20110;-70
2023/05/07 08:36:06;;;;;;;1.30;0.70;;;;;;;11.64;76.58;101208.66;4835835;29;20053;-69
2023/05/07 08:38:34;;;;;;;0.65;0.63;;;;;;;11.63;76.76;101209.47;4833963;29;20128;-70
2023/05/07 08:41:03;;;;;;;2.33;0.90;;;;;;;11.60;75.89;101207.66;4834155;29;20058;-70
2023/05/07 08:43:35;;;;;;;1.23;0.60;;;;;;;11.59;76.65;101197.22;4836557;29;20594;-69
2023/05/07 08:46:07;;;;;;;0.95;0.70;;;;;;;11.61;76.95;101204.22;4835562;29;20578;-69
2023/05/07 08:48:35;;;;;;;2.40;0.60;;;;;;;11.61;76.34;101206.81;4834357;29;20062;-70
2023/05/07 08:51:04;;;;;;;1.52;0.60;;;;;;;11.63;76.73;101206.88;4827658;29;20053;-70
2023/05/07 08:53:33;;;;;;;1.88;0.60;;;;;;;11.64;76.64;101206.06;4834613;29;20054;-70
2023/05/07 08:56:02;;;;;;;4.50;0.68;;;;;;;11.63;77.96;101212.06;4836402;29;20058;-70
2023/05/07 08:58:30;;;;;;;4.30;0.80;;;;;;;11.61;79.14;101213.72;4836905;29;20042;-70
2023/05/07 09:01:00;;;;;;;1.02;0.70;;;;;;;11.60;79.57;101212.84;4829930;29;20050;-70
2023/05/07 09:03:32;;;;;;;0.50;0.50;;;;;;;11.58;81.12;101209.31;4834183;29;20646;-70
2023/05/07 09:06:00;;;;;;;0.57;0.40;;;;;;;11.56;80.87;101210.09;4826240;29;20522;-70
2023/05/07 09:08:30;;;;;;;1.15;0.50;;;;;;;11.53;80.51;101213.47;4832460;29;20066;-70
2023/05/07 09:10:58;;;;;;;1.38;0.40;;;;;;;11.52;81.63;101215.19;4827343;29;20062;-70
2023/05/07 09:13:28;;;;;;;1.38;0.60;;;;;;;11.50;82.39;101205.59;4837766;29;20492;-70
2023/05/07 09:15:57;;;;;;;0.98;0.50;;;;;;;11.51;82.38;101205.63;4837891;29;20061;-70
2023/05/07 09:18:26;;;;;;;1.92;1.23;;;;;;;11.48;82.56;101210.72;4842053;29;20065;-71
2023/05/07 09:20:57;;;;;;;2.20;0.60;;;;;;;11.47;83.34;101208.06;4838442;29;20069;-70
2023/05/07 09:23:26;;;;;;;1.67;0.57;;;;;;;11.43;83.64;101211.38;4836787;29;20081;-71
2023/05/07 09:26:02;;;;;;;1.20;0.60;;;;;;;11.39;83.40;101204.38;4836629;29;20050;-70
2023/05/07 09:28:31;;;;;;;5.90;1.08;;;;;;;11.38;83.13;101200.00;4834286;29;20057;-70
2023/05/07 09:30:59;;;;;;;1.55;0.80;;;;;;;11.35;84.77;101211.16;4840057;29;20080;-71
2023/05/07 09:33:30;;;;;;;1.38;0.73;;;;;;;11.31;84.16;101206.69;4836808;29;20271;-71
2023/05/07 09:36:00;;;;;;;2.97;0.90;;;;;;;11.27;84.57;101202.22;4829196;29;20050;-70
2023/05/07 09:38:29;;;;;;;1.15;0.50;;;;;;;11.27;84.89;101205.72;4831733;29;20046;-70
2023/05/07 09:41:08;;;;;;;1.30;0.68;;;;;;;11.28;84.37;101204.00;4836527;29;20045;-71
2023/05/07 09:43:38;;;;;;;1.60;0.88;;;;;;;11.29;84.54;101204.06;4830940;29;20115;-71
2023/05/07 09:46:10;;;;;;;2.40;0.80;;;;;;;11.30;84.48;101208.41;4839687;29;20537;-70
2023/05/07 09:48:40;;;;;;;1.73;1.23;;;;;;;11.30;84.39;101204.94;4836605;29;20084;-70
2023/05/07 09:51:17;;;;;;;1.45;0.60;;;;;;;11.28;84.84;101207.47;4833308;29;20151;-69
2023/05/07 09:53:47;;;;;;;1.23;0.70;;;;;;;11.27;85.13;101210.00;4840003;29;20057;-71
2023/05/07 09:56:17;;;;;;;1.52;0.50;;;;;;;11.28;84.29;101207.47;4836088;29;20049;-70
2023/05/07 09:58:46;;;;;;;1.30;0.77;;;;;;;11.28;84.89;101201.41;4833140;29;20057;-70
2023/05/07 10:01:15;;;;;;;2.30;0.60;;;;;;;11.28;85.73;101209.19;4834312;29;20060;-69
2023/05/07 10:03:45;;;;;;;3.72;0.90;;;;;;;11.30;85.05;101204.94;4840803;29;20058;-69
2023/05/07 10:06:16;;;;;;;2.17;0.68;;;;;;;11.30;85.12;101211.00;4835596;29;20149;-69
2023/05/07 10:08:45;;;;;;;2.28;0.80;;;;;;;11.32;86.47;101200.69;4815411;29;20596;-69
2023/05/07 10:11:15;;;;;;;3.05;0.77;;;;;;;11.31;85.53;101198.91;4815953;29;20043;-69
2023/05/07 10:13:45;;;;;;;1.08;0.75;;;;;;;11.29;86.85;101201.47;4818454;29;20687;-70
2023/05/07 10:16:14;;;;;;;0.82;0.40;;;;;;;11.28;86.88;101201.41;4818832;29;20058;-70
2023/05/07 10:18:44;;;;;;;1.55;0.80;;;;;;;11.26;87.94;101205.66;4811714;29;20051;-70
2023/05/07 10:21:19;;;;;;;3.60;0.95;;;;;;;11.20;89.58;101203.75;4817705;29;20056;-71
2023/05/07 10:23:52;;;;;;;1.85;0.80;;;;;;;11.17;88.96;101207.94;4813145;29;20054;-71
2023/05/07 10:26:23;;;;;;;7.50;0.70;;;;;;;11.14;90.00;101202.66;4814776;29;20066;-70
2023/05/07 10:28:58;;;;;;;1.40;0.60;;;;;;;11.09;89.48;101195.59;4810659;29;20494;-69
2023/05/07 10:31:49;;;;;;;2.70;0.75;;;;;;;11.07;89.87;101197.25;4814341;29;20670;-69
2023/05/07 10:34:22;;;;;;;1.77;0.93;;;;;;;11.00;88.71;101195.28;4818929;29;20086;-70
2023/05/07 10:36:54;;;;;;;5.10;0.93;;;;;;;10.98;88.93;101193.47;4814181;29;20054;-70
2023/05/07 10:39:23;;;;;;;1.95;0.98;;;;;;;10.96;88.58;101189.94;4806427;29;20066;-70
2023/05/07 10:41:52;;;;;;;1.65;0.82;;;;;;;10.94;88.58;101184.72;4822121;29;20050;-69
2023/05/07 10:44:30;;;;;;;1.50;0.70;;;;;;;10.94;89.04;101189.00;4809778;29;20170;-69
2023/05/07 10:47:09;;;;;;;0.85;0.52;;;;;;;10.94;88.60;101195.06;4814406;29;20054;-69
2023/05/07 10:49:39;;;;;;;1.75;0.50;;;;;;;10.95;88.64;101190.75;4815664;29;20110;-70
2023/05/07 10:52:16;;;;;;;1.52;0.75;;;;;;;10.95;87.93;101190.75;4814447;29;20078;-70
2023/05/07 10:54:45;;;;;;;0.85;0.80;;;;;;;10.92;87.75;101191.53;4811091;29;20411;-70
2023/05/07 10:57:37;;;;;;;1.77;0.80;;;;;;;10.88;87.82;101187.06;4814836;29;20061;-70
2023/05/07 11:00:26;;;;;;;4.68;1.02;;;;;;;10.88;87.38;101194.84;4816351;29;20673;-70
2023/05/07 11:03:08;;;;;;;2.47;0.88;;;;;;;10.87;87.80;101200.84;4816224;29;20059;-69
2023/05/07 11:05:37;;;;;;;6.07;1.52;;;;;;;10.87;87.03;101199.16;4816083;29;20122;-70
2023/05/07 11:08:07;;;;;;;3.92;0.80;;;;;;;10.86;87.15;101192.22;4831468;29;20137;-70
2023/05/07 11:10:53;;;;;;;1.92;0.70;;;;;;;10.86;87.78;101186.16;4836795;29;20517;-71
2023/05/07 11:13:46;;;;;;;6.22;1.13;;;;;;;10.85;86.21;101189.56;4831356;29;20058;-71
2023/05/07 11:16:21;;;;;;;2.88;1.40;;;;;;;10.83;87.02;101186.03;4835946;29;20103;-70
2023/05/07 11:18:50;;;;;;;3.42;1.30;;;;;;;10.82;86.99;101184.28;4835306;29;20056;-70
2023/05/07 11:21:34;;;;;;;1.00;0.73;;;;;;;10.81;86.91;101177.34;4837179;29;20046;-70
2023/05/07 11:24:05;;;;;;;0.88;0.68;;;;;;;10.80;87.43;101185.94;4838097;29;20046;-69
2023/05/07 11:26:45;;;;;;;1.27;0.70;;;;;;;10.77;86.03;101167.72;4837869;29;20515;-69
2023/05/07 11:29:15;;;;;;;5.63;0.88;;;;;;;10.76;85.69;101184.06;4834184;29;20146;-70
2023/05/07 11:31:44;;;;;;;5.03;0.90;;;;;;;10.74;84.87;101180.53;4837356;29;20053;-70
2023/05/07 11:34:13;;;;;;;1.95;0.82;;;;;;;10.72;86.40;101187.34;4835284;29;20073;-69
2023/05/07 11:36:47;;;;;;;4.07;0.88;;;;;;;10.74;86.60;101177.94;4825906;29;20107;-69